Terminal Aerodrome Forecast
Issued by NWS

Home | Current Version | Previous Version | Text Only | Print | Product List | Glossary On
Versions: 1 2 3 4 5 6 7 8 9 10 11 12 13 14 15 16 17 18 19 20
000
FTUS43 KGRB 312300
TAFCWA
TAF
KCWA 312325Z 0100/0124 36010KT P6SM SCT045
      TEMPO 0100/0104 BKN045
     FM010400 35005KT P6SM SKC
     FM011600 16005KT P6SM SCT250
      AMD LTD TO CLD VIS AND WIND 0103/0111=

USA.gov is the U.S. government's official web portal to all federal, state and local government web resources and services.